createdAt,value
2022-11-29T00:00:05.148Z,22.73
2022-11-29T00:05:17.178Z,22.07
2022-11-29T00:10:20.811Z,18.57
2022-11-29T00:15:24.291Z,19.97
2022-11-29T00:20:28.999Z,21.27
2022-11-29T00:25:32.556Z,18.70
2022-11-29T00:30:36.289Z,19.53
2022-11-29T00:35:41.028Z,19.80
2022-11-29T00:40:44.522Z,17.33
2022-11-29T00:45:47.887Z,20.13
2022-11-29T00:50:52.679Z,21.37
2022-11-29T00:55:56.059Z,19.57
2022-11-29T01:00:59.426Z,20.37
2022-11-29T01:06:04.936Z,19.17
2022-11-29T01:11:09.739Z,18.30
2022-11-29T01:16:14.419Z,20.87
2022-11-29T01:21:20.423Z,19.60
2022-11-29T01:26:24.740Z,19.20
2022-11-29T01:31:29.409Z,18.20
2022-11-29T01:36:34.803Z,21.80
2022-11-29T01:41:38.728Z,23.13
2022-11-29T01:46:43.097Z,21.07
2022-11-29T01:51:50.144Z,19.30
2022-11-29T01:56:53.887Z,20.63
2022-11-29T02:02:01.726Z,19.23
2022-11-29T02:07:06.551Z,14.47
2022-11-29T02:12:16.957Z,18.40
2022-11-29T02:17:24.210Z,21.10
2022-11-29T02:22:30.444Z,18.57
2022-11-29T02:27:58.500Z,18.50
2022-11-29T02:33:23.015Z,20.30
2022-11-29T02:38:34.169Z,21.90
2022-11-29T02:44:07.883Z,20.03
2022-11-29T02:49:15.138Z,22.50
2022-11-29T02:54:24.159Z,19.93
2022-11-29T02:59:40.687Z,20.73
2022-11-29T03:04:47.315Z,21.33
2022-11-29T03:09:57.176Z,21.93
2022-11-29T03:15:05.024Z,19.57
2022-11-29T03:20:13.206Z,25.07
2022-11-29T03:25:22.709Z,22.27
2022-11-29T03:30:26.106Z,23.97
2022-11-29T03:35:34.399Z,18.50
2022-11-29T03:40:43.308Z,28.47
2022-11-29T03:45:50.079Z,29.00
2022-11-29T03:50:55.050Z,34.57
2022-11-29T03:56:01.378Z,25.23
2022-11-29T04:01:21.872Z,25.57
2022-11-29T04:06:32.822Z,21.07
2022-11-29T04:11:59.069Z,22.73
2022-11-29T04:17:17.336Z,28.03
2022-11-29T04:22:44.719Z,22.60
2022-11-29T04:27:51.652Z,25.77
2022-11-29T04:33:17.220Z,24.20
2022-11-29T04:38:29.003Z,20.53
2022-11-29T04:43:42.918Z,27.23
2022-11-29T04:49:00.519Z,24.53
2022-11-29T04:54:07.482Z,32.57
2022-11-29T04:59:15.187Z,36.50
2022-11-29T05:04:22.270Z,24.23
2022-11-29T05:09:29.343Z,24.10
2022-11-29T05:14:39.052Z,26.27
2022-11-29T05:19:49.616Z,22.90
2022-11-29T05:24:56.589Z,26.37
2022-11-29T05:30:06.646Z,27.73
2022-11-29T05:35:30.454Z,25.83
2022-11-29T05:40:41.457Z,27.57
2022-11-29T05:45:49.853Z,29.23
2022-11-29T05:50:59.642Z,30.67
2022-11-29T05:56:05.534Z,22.30
2022-11-29T06:01:15.479Z,55.97
2022-11-29T06:06:23.835Z,29.13
2022-11-29T06:11:30.055Z,30.40
2022-11-29T06:16:43.777Z,24.97
2022-11-29T06:21:52.683Z,25.13
2022-11-29T06:27:11.066Z,30.43
2022-11-29T06:32:21.853Z,26.63
2022-11-29T06:37:28.027Z,30.83
2022-11-29T06:42:31.619Z,25.87
2022-11-29T06:47:40.991Z,28.83
2022-11-29T06:52:48.335Z,31.43
2022-11-29T06:57:58.028Z,40.00
2022-11-29T07:03:11.315Z,35.13
2022-11-29T07:08:16.273Z,38.83
2022-11-29T07:13:20.226Z,47.73
2022-11-29T07:18:27.690Z,39.37
2022-11-29T07:23:34.891Z,44.03
2022-11-29T07:28:44.923Z,42.67
2022-11-29T07:33:56.023Z,39.90
2022-11-29T07:39:03.893Z,37.10
2022-11-29T07:44:09.804Z,53.90
2022-11-29T07:49:14.513Z,40.37
2022-11-29T07:54:19.435Z,37.43
2022-11-29T07:59:22.612Z,30.73
2022-11-29T08:04:27.263Z,31.67
2022-11-29T08:09:30.474Z,37.07
2022-11-29T08:14:33.778Z,30.60
2022-11-29T08:19:38.357Z,34.43
2022-11-29T08:24:41.842Z,16.77
2022-11-29T08:29:45.270Z,13.00
2022-11-29T08:34:49.924Z,11.23
2022-11-29T08:39:53.377Z,12.63
2022-11-29T08:44:56.468Z,10.17
2022-11-29T08:50:03.812Z,11.57
2022-11-29T08:55:07.501Z,14.80
2022-11-29T09:00:11.428Z,12.70
2022-11-29T09:05:16.232Z,26.77
2022-11-29T09:10:19.499Z,19.23
2022-11-29T09:15:22.683Z,20.30
2022-11-29T09:20:27.231Z,15.83
2022-11-29T09:25:30.431Z,14.10
2022-11-29T09:30:35.149Z,15.67
2022-11-29T09:35:39.845Z,15.07
2022-11-29T09:40:48.023Z,14.33
2022-11-29T09:45:54.496Z,14.13
2022-11-29T09:51:05.380Z,17.77
2022-11-29T09:56:13.356Z,13.40
2022-11-29T10:01:20.308Z,12.30
2022-11-29T10:06:27.407Z,17.23
2022-11-29T10:11:33.259Z,20.07
2022-11-29T10:16:42.399Z,15.07
2022-11-29T10:21:50.450Z,19.87
2022-11-29T10:26:54.501Z,14.67
2022-11-29T10:31:59.353Z,13.77
2022-11-29T10:37:04.055Z,16.97
2022-11-29T10:42:28.624Z,13.43
2022-11-29T10:47:32.418Z,14.50
2022-11-29T10:52:37.501Z,13.90
2022-11-29T10:58:00.799Z,15.53
2022-11-29T11:03:16.614Z,14.40
2022-11-29T11:08:21.316Z,17.60
2022-11-29T11:13:25.805Z,16.13
2022-11-29T11:18:32.395Z,17.07
2022-11-29T11:23:42.800Z,19.10
2022-11-29T11:28:50.789Z,15.20
2022-11-29T11:33:54.344Z,21.40
2022-11-29T11:38:59.665Z,17.73
2022-11-29T11:44:07.110Z,19.47
2022-11-29T11:49:25.139Z,15.40
2022-11-29T11:54:31.431Z,17.93
2022-11-29T11:59:36.870Z,18.10
2022-11-29T12:04:40.170Z,18.67
2022-11-29T12:09:46.041Z,21.70
2022-11-29T12:14:53.165Z,17.73
2022-11-29T12:20:05.552Z,14.57
2022-11-29T12:25:14.056Z,17.03
2022-11-29T12:30:17.492Z,20.63
2022-11-29T12:35:29.619Z,16.03
2022-11-29T12:40:36.776Z,19.37
2022-11-29T12:45:42.695Z,18.87
2022-11-29T12:50:51.548Z,19.07
2022-11-29T12:56:01.790Z,19.37
2022-11-29T13:01:08.931Z,20.23
2022-11-29T13:06:17.311Z,19.83
2022-11-29T13:11:23.899Z,19.10
2022-11-29T13:16:32.635Z,20.17
2022-11-29T13:21:39.055Z,20.73
2022-11-29T13:26:44.494Z,22.23
2022-11-29T13:31:48.247Z,23.77
2022-11-29T13:36:56.976Z,26.77
2022-11-29T13:42:04.936Z,26.77
2022-11-29T13:47:10.279Z,22.63
2022-11-29T13:52:22.995Z,25.20
2022-11-29T13:57:27.673Z,21.17
2022-11-29T14:02:31.871Z,16.57
2022-11-29T14:07:36.029Z,19.00
2022-11-29T14:12:42.643Z,21.27
2022-11-29T14:18:03.622Z,19.93
2022-11-29T14:23:17.367Z,21.77
2022-11-29T14:28:39.185Z,14.37
2022-11-29T14:33:53.663Z,16.03
2022-11-29T14:39:00.012Z,17.67
2022-11-29T14:44:07.853Z,22.03
2022-11-29T14:49:21.385Z,19.53
2022-11-29T14:54:24.570Z,17.93
2022-11-29T14:59:46.749Z,24.87
2022-11-29T15:04:52.715Z,23.83
2022-11-29T15:09:57.447Z,31.33
2022-11-29T15:15:05.747Z,38.37
2022-11-29T15:20:30.097Z,18.80
2022-11-29T15:25:35.113Z,23.30
2022-11-29T15:30:39.634Z,34.13
2022-11-29T15:35:48.694Z,22.77
2022-11-29T15:40:54.240Z,35.13
2022-11-29T15:45:58.004Z,29.00
2022-11-29T15:51:04.383Z,22.20
2022-11-29T15:56:12.405Z,23.60
2022-11-29T16:01:20.079Z,21.10
2022-11-29T16:06:25.631Z,24.93
2022-11-29T16:11:32.638Z,23.47
2022-11-29T16:16:36.214Z,21.77
2022-11-29T16:21:40.924Z,23.53
2022-11-29T16:26:47.472Z,25.40
2022-11-29T16:31:50.762Z,27.43
2022-11-29T16:37:01.381Z,21.20
2022-11-29T16:42:14.902Z,24.27
2022-11-29T16:47:19.857Z,25.57
2022-11-29T16:52:27.112Z,19.20
2022-11-29T16:57:32.534Z,20.33
2022-11-29T17:02:35.991Z,20.57
2022-11-29T17:07:40.932Z,26.87
2022-11-29T17:12:48.196Z,30.27
2022-11-29T17:17:51.760Z,30.33
2022-11-29T17:22:55.092Z,27.47
2022-11-29T17:27:59.736Z,21.20
2022-11-29T17:33:03.067Z,23.87
2022-11-29T17:38:06.308Z,18.77
2022-11-29T17:43:11.076Z,43.03
2022-11-29T17:48:14.363Z,30.83
2022-11-29T17:53:17.642Z,26.73
2022-11-29T17:58:22.424Z,19.17
2022-11-29T18:03:25.672Z,21.93
2022-11-29T18:08:29.419Z,72.33
2022-11-29T18:13:34.055Z,78.60
2022-11-29T18:18:38.008Z,87.10
2022-11-29T18:23:43.651Z,23.93
2022-11-29T18:28:48.425Z,19.77
2022-11-29T18:33:52.379Z,35.60
2022-11-29T18:38:57.412Z,23.47
2022-11-29T18:44:02.956Z,32.13
2022-11-29T18:49:06.736Z,16.50
2022-11-29T18:54:09.936Z,19.10
2022-11-29T18:59:16.622Z,17.77
2022-11-29T19:04:20.767Z,16.53
2022-11-29T19:09:25.757Z,15.03
2022-11-29T19:14:32.377Z,17.47
2022-11-29T19:19:55.639Z,20.57
2022-11-29T19:24:58.730Z,24.50
2022-11-29T19:30:03.353Z,13.47
2022-11-29T19:35:07.134Z,16.53
2022-11-29T19:40:11.675Z,20.13
2022-11-29T19:45:17.997Z,21.60
2022-11-29T19:50:21.552Z,17.47
2022-11-29T19:55:24.905Z,14.83
2022-11-29T20:00:30.020Z,20.10
2022-11-29T20:05:33.416Z,15.33
2022-11-29T20:10:37.042Z,15.60
2022-11-29T20:15:42.336Z,13.50
2022-11-29T20:20:45.788Z,14.50
2022-11-29T20:25:49.811Z,17.33
2022-11-29T20:30:54.736Z,16.23
2022-11-29T20:36:02.879Z,21.17
2022-11-29T20:41:13.742Z,20.23
2022-11-29T20:46:19.146Z,21.70
2022-11-29T20:51:24.729Z,100.70
2022-11-29T20:56:28.180Z,35.47
2022-11-29T21:01:33.188Z,82.80
2022-11-29T21:06:38.508Z,85.90
2022-11-29T21:11:42.146Z,104.77
2022-11-29T21:16:47.413Z,131.93
2022-11-29T21:21:56.711Z,78.57
2022-11-29T21:27:00.084Z,90.00
2022-11-29T21:32:05.369Z,78.53
2022-11-29T21:37:10.096Z,91.57
2022-11-29T21:42:13.460Z,55.43
2022-11-29T21:47:18.305Z,70.53
2022-11-29T21:52:23.036Z,79.57
2022-11-29T21:57:26.627Z,63.83
2022-11-29T22:02:31.264Z,56.07
2022-11-29T22:07:34.615Z,60.80
2022-11-29T22:12:38.063Z,90.80
2022-11-29T22:17:53.586Z,87.03
2022-11-29T22:22:58.873Z,56.87
2022-11-29T22:28:02.470Z,66.53
2022-11-29T22:33:13.123Z,51.93
2022-11-29T22:38:17.475Z,41.80
2022-11-29T22:43:20.928Z,47.00
2022-11-29T22:48:25.771Z,41.30
2022-11-29T22:53:28.999Z,44.13
2022-11-29T22:58:32.575Z,44.70
2022-11-29T23:03:38.346Z,41.07
2022-11-29T23:08:42.937Z,41.63
2022-11-29T23:13:46.259Z,38.83
2022-11-29T23:18:51.415Z,35.97
2022-11-29T23:23:56.821Z,38.93
2022-11-29T23:29:00.264Z,36.40
2022-11-29T23:34:05.566Z,34.67
2022-11-29T23:39:08.868Z,38.57
2022-11-29T23:44:12.574Z,37.73
2022-11-29T23:49:17.500Z,37.43
2022-11-29T23:54:20.818Z,39.37
2022-11-29T23:59:24.311Z,43.07
